sensor_id;sensor_type;location;lat;lon;timestamp;P1;durP1;ratioP1;P2;durP2;ratioP2
5499;SDS011;2772;42.700;23.304;2022-07-23T00:01:29;10.17;;;8.30;;
5499;SDS011;2772;42.700;23.304;2022-07-23T00:03:56;22.90;;;14.90;;
5499;SDS011;2772;42.700;23.304;2022-07-23T00:06:23;40.20;;;24.60;;
5499;SDS011;2772;42.700;23.304;2022-07-23T00:08:50;32.23;;;15.83;;
5499;SDS011;2772;42.700;23.304;2022-07-23T00:11:17;23.00;;;14.53;;
5499;SDS011;2772;42.700;23.304;2022-07-23T00:13:44;27.50;;;17.50;;
5499;SDS011;2772;42.700;23.304;2022-07-23T00:16:12;34.17;;;22.70;;
5499;SDS011;2772;42.700;23.304;2022-07-23T00:18:41;25.83;;;14.70;;
5499;SDS011;2772;42.700;23.304;2022-07-23T00:21:08;28.93;;;17.70;;
5499;SDS011;2772;42.700;23.304;2022-07-23T00:23:35;35.10;;;20.10;;
5499;SDS011;2772;42.700;23.304;2022-07-23T00:26:02;30.33;;;18.20;;
5499;SDS011;2772;42.700;23.304;2022-07-23T00:28:29;33.00;;;21.37;;
5499;SDS011;2772;42.700;23.304;2022-07-23T00:30:56;22.67;;;14.47;;
5499;SDS011;2772;42.700;23.304;2022-07-23T00:33:22;20.83;;;14.67;;
5499;SDS011;2772;42.700;23.304;2022-07-23T00:35:51;21.33;;;14.27;;
5499;SDS011;2772;42.700;23.304;2022-07-23T00:38:18;20.73;;;14.23;;
5499;SDS011;2772;42.700;23.304;2022-07-23T00:40:45;45.27;;;24.00;;
5499;SDS011;2772;42.700;23.304;2022-07-23T00:43:11;26.20;;;16.57;;
5499;SDS011;2772;42.700;23.304;2022-07-23T00:45:38;16.27;;;10.10;;
5499;SDS011;2772;42.700;23.304;2022-07-23T00:48:06;17.43;;;11.63;;
5499;SDS011;2772;42.700;23.304;2022-07-23T00:50:33;22.10;;;13.37;;
5499;SDS011;2772;42.700;23.304;2022-07-23T00:53:02;16.13;;;12.83;;
5499;SDS011;2772;42.700;23.304;2022-07-23T00:55:29;28.03;;;18.30;;
5499;SDS011;2772;42.700;23.304;2022-07-23T00:57:56;21.83;;;12.73;;
5499;SDS011;2772;42.700;23.304;2022-07-23T01:00:24;19.00;;;11.47;;
5499;SDS011;2772;42.700;23.304;2022-07-23T01:02:51;27.07;;;14.93;;
5499;SDS011;2772;42.700;23.304;2022-07-23T01:05:18;18.50;;;12.37;;
5499;SDS011;2772;42.700;23.304;2022-07-23T01:07:47;25.60;;;15.00;;
5499;SDS011;2772;42.700;23.304;2022-07-23T01:10:15;26.50;;;17.30;;
5499;SDS011;2772;42.700;23.304;2022-07-23T01:12:58;14.53;;;9.70;;
5499;SDS011;2772;42.700;23.304;2022-07-23T01:15:26;19.47;;;14.47;;
5499;SDS011;2772;42.700;23.304;2022-07-23T01:17:53;20.27;;;14.63;;
5499;SDS011;2772;42.700;23.304;2022-07-23T01:20:20;22.40;;;15.07;;
5499;SDS011;2772;42.700;23.304;2022-07-23T01:22:49;15.80;;;11.73;;
5499;SDS011;2772;42.700;23.304;2022-07-23T01:25:16;16.60;;;10.60;;
5499;SDS011;2772;42.700;23.304;2022-07-23T01:27:43;19.93;;;13.67;;
5499;SDS011;2772;42.700;23.304;2022-07-23T01:30:10;16.87;;;12.83;;
5499;SDS011;2772;42.700;23.304;2022-07-23T01:32:38;14.60;;;10.30;;
5499;SDS011;2772;42.700;23.304;2022-07-23T01:35:05;21.67;;;13.20;;
5499;SDS011;2772;42.700;23.304;2022-07-23T01:37:33;21.27;;;13.00;;
5499;SDS011;2772;42.700;23.304;2022-07-23T01:40:02;20.37;;;11.60;;
5499;SDS011;2772;42.700;23.304;2022-07-23T01:42:29;16.27;;;10.40;;
5499;SDS011;2772;42.700;23.304;2022-07-23T01:44:56;17.17;;;10.83;;
5499;SDS011;2772;42.700;23.304;2022-07-23T01:47:23;14.70;;;10.63;;
5499;SDS011;2772;42.700;23.304;2022-07-23T01:49:50;19.20;;;12.00;;
5499;SDS011;2772;42.700;23.304;2022-07-23T01:52:17;23.23;;;12.83;;
5499;SDS011;2772;42.700;23.304;2022-07-23T01:54:44;22.67;;;12.10;;
5499;SDS011;2772;42.700;23.304;2022-07-23T01:57:12;18.80;;;12.23;;
5499;SDS011;2772;42.700;23.304;2022-07-23T01:59:39;23.43;;;13.47;;
5499;SDS011;2772;42.700;23.304;2022-07-23T02:02:06;14.47;;;11.77;;
5499;SDS011;2772;42.700;23.304;2022-07-23T02:04:33;17.63;;;11.90;;
5499;SDS011;2772;42.700;23.304;2022-07-23T02:07:01;19.53;;;12.80;;
5499;SDS011;2772;42.700;23.304;2022-07-23T02:09:29;12.50;;;10.13;;
5499;SDS011;2772;42.700;23.304;2022-07-23T02:11:56;13.60;;;10.00;;
5499;SDS011;2772;42.700;23.304;2022-07-23T02:14:24;12.13;;;10.40;;
5499;SDS011;2772;42.700;23.304;2022-07-23T02:16:51;15.83;;;10.20;;
5499;SDS011;2772;42.700;23.304;2022-07-23T02:19:18;19.90;;;11.37;;
5499;SDS011;2772;42.700;23.304;2022-07-23T02:21:45;19.57;;;11.23;;
5499;SDS011;2772;42.700;23.304;2022-07-23T02:24:12;18.00;;;11.67;;
5499;SDS011;2772;42.700;23.304;2022-07-23T02:26:39;11.87;;;10.67;;
5499;SDS011;2772;42.700;23.304;2022-07-23T02:29:06;15.90;;;11.30;;
5499;SDS011;2772;42.700;23.304;2022-07-23T02:31:35;13.70;;;10.80;;
5499;SDS011;2772;42.700;23.304;2022-07-23T02:34:02;15.50;;;11.17;;
5499;SDS011;2772;42.700;23.304;2022-07-23T02:36:29;14.20;;;10.50;;
5499;SDS011;2772;42.700;23.304;2022-07-23T02:38:56;20.00;;;12.90;;
5499;SDS011;2772;42.700;23.304;2022-07-23T02:41:23;14.50;;;11.07;;
5499;SDS011;2772;42.700;23.304;2022-07-23T02:43:50;16.70;;;10.00;;
5499;SDS011;2772;42.700;23.304;2022-07-23T02:46:17;15.83;;;9.83;;
5499;SDS011;2772;42.700;23.304;2022-07-23T02:48:45;18.50;;;12.53;;
5499;SDS011;2772;42.700;23.304;2022-07-23T02:51:12;16.83;;;10.60;;
5499;SDS011;2772;42.700;23.304;2022-07-23T02:53:39;17.07;;;11.10;;
5499;SDS011;2772;42.700;23.304;2022-07-23T02:56:06;14.27;;;10.10;;
5499;SDS011;2772;42.700;23.304;2022-07-23T02:58:32;21.20;;;11.07;;
5499;SDS011;2772;42.700;23.304;2022-07-23T03:00:59;35.27;;;12.67;;
5499;SDS011;2772;42.700;23.304;2022-07-23T03:03:26;18.03;;;10.90;;
5499;SDS011;2772;42.700;23.304;2022-07-23T03:05:54;14.57;;;10.80;;
5499;SDS011;2772;42.700;23.304;2022-07-23T03:08:21;20.43;;;10.90;;
5499;SDS011;2772;42.700;23.304;2022-07-23T03:10:48;13.90;;;9.80;;
5499;SDS011;2772;42.700;23.304;2022-07-23T03:13:16;13.63;;;9.90;;
5499;SDS011;2772;42.700;23.304;2022-07-23T03:15:43;16.47;;;11.23;;
5499;SDS011;2772;42.700;23.304;2022-07-23T03:18:09;18.90;;;11.60;;
5499;SDS011;2772;42.700;23.304;2022-07-23T03:20:36;15.47;;;10.80;;
5499;SDS011;2772;42.700;23.304;2022-07-23T03:23:05;39.57;;;17.33;;
5499;SDS011;2772;42.700;23.304;2022-07-23T03:25:32;31.20;;;17.77;;
5499;SDS011;2772;42.700;23.304;2022-07-23T03:27:59;16.10;;;14.40;;
5499;SDS011;2772;42.700;23.304;2022-07-23T03:30:25;19.23;;;13.30;;
5499;SDS011;2772;42.700;23.304;2022-07-23T03:32:52;23.50;;;12.83;;
5499;SDS011;2772;42.700;23.304;2022-07-23T03:35:19;13.53;;;11.33;;
5499;SDS011;2772;42.700;23.304;2022-07-23T03:37:46;18.67;;;11.57;;
5499;SDS011;2772;42.700;23.304;2022-07-23T03:40:14;20.17;;;14.00;;
5499;SDS011;2772;42.700;23.304;2022-07-23T03:42:41;17.80;;;11.53;;
5499;SDS011;2772;42.700;23.304;2022-07-23T03:45:08;35.93;;;17.70;;
5499;SDS011;2772;42.700;23.304;2022-07-23T03:47:36;14.87;;;10.90;;
5499;SDS011;2772;42.700;23.304;2022-07-23T03:50:04;21.50;;;13.10;;
5499;SDS011;2772;42.700;23.304;2022-07-23T03:52:31;26.50;;;15.00;;
5499;SDS011;2772;42.700;23.304;2022-07-23T03:54:58;25.57;;;13.40;;
5499;SDS011;2772;42.700;23.304;2022-07-23T03:57:27;21.70;;;13.50;;
5499;SDS011;2772;42.700;23.304;2022-07-23T03:59:53;22.07;;;14.23;;
5499;SDS011;2772;42.700;23.304;2022-07-23T04:02:20;20.17;;;14.50;;
5499;SDS011;2772;42.700;23.304;2022-07-23T04:04:47;19.40;;;11.90;;
5499;SDS011;2772;42.700;23.304;2022-07-23T04:07:14;23.43;;;13.63;;
5499;SDS011;2772;42.700;23.304;2022-07-23T04:09:42;31.30;;;15.27;;
5499;SDS011;2772;42.700;23.304;2022-07-23T04:12:09;17.53;;;11.90;;
5499;SDS011;2772;42.700;23.304;2022-07-23T04:14:37;20.90;;;13.80;;
5499;SDS011;2772;42.700;23.304;2022-07-23T04:17:04;30.20;;;15.50;;
5499;SDS011;2772;42.700;23.304;2022-07-23T04:19:31;21.80;;;14.27;;
5499;SDS011;2772;42.700;23.304;2022-07-23T04:21:58;18.70;;;13.23;;
5499;SDS011;2772;42.700;23.304;2022-07-23T04:24:25;19.63;;;12.60;;
5499;SDS011;2772;42.700;23.304;2022-07-23T04:26:52;19.50;;;14.43;;
5499;SDS011;2772;42.700;23.304;2022-07-23T04:29:19;19.23;;;13.67;;
5499;SDS011;2772;42.700;23.304;2022-07-23T04:31:47;14.23;;;11.50;;
5499;SDS011;2772;42.700;23.304;2022-07-23T04:34:14;14.57;;;11.00;;
5499;SDS011;2772;42.700;23.304;2022-07-23T04:36:41;15.77;;;12.63;;
5499;SDS011;2772;42.700;23.304;2022-07-23T04:39:08;20.03;;;10.90;;
5499;SDS011;2772;42.700;23.304;2022-07-23T04:41:35;23.77;;;13.50;;
5499;SDS011;2772;42.700;23.304;2022-07-23T04:44:02;18.23;;;12.43;;
5499;SDS011;2772;42.700;23.304;2022-07-23T04:46:29;22.83;;;11.70;;
5499;SDS011;2772;42.700;23.304;2022-07-23T04:48:57;18.73;;;12.30;;
5499;SDS011;2772;42.700;23.304;2022-07-23T04:51:24;19.30;;;12.37;;
5499;SDS011;2772;42.700;23.304;2022-07-23T04:53:51;17.90;;;12.33;;
5499;SDS011;2772;42.700;23.304;2022-07-23T04:56:18;18.20;;;12.93;;
5499;SDS011;2772;42.700;23.304;2022-07-23T04:58:45;19.87;;;12.30;;
5499;SDS011;2772;42.700;23.304;2022-07-23T05:01:12;17.83;;;12.37;;
5499;SDS011;2772;42.700;23.304;2022-07-23T05:03:38;19.00;;;12.20;;
5499;SDS011;2772;42.700;23.304;2022-07-23T05:06:07;24.13;;;11.97;;
5499;SDS011;2772;42.700;23.304;2022-07-23T05:08:34;20.30;;;12.50;;
5499;SDS011;2772;42.700;23.304;2022-07-23T05:11:01;22.43;;;12.67;;
5499;SDS011;2772;42.700;23.304;2022-07-23T05:13:28;19.43;;;12.23;;
5499;SDS011;2772;42.700;23.304;2022-07-23T05:15:55;18.97;;;13.60;;
5499;SDS011;2772;42.700;23.304;2022-07-23T05:18:22;17.17;;;13.20;;
5499;SDS011;2772;42.700;23.304;2022-07-23T05:20:49;17.63;;;12.03;;
5499;SDS011;2772;42.700;23.304;2022-07-23T05:23:17;19.50;;;12.97;;
5499;SDS011;2772;42.700;23.304;2022-07-23T05:25:44;17.60;;;11.33;;
5499;SDS011;2772;42.700;23.304;2022-07-23T05:28:11;18.67;;;11.23;;
5499;SDS011;2772;42.700;23.304;2022-07-23T05:30:37;22.23;;;11.70;;
5499;SDS011;2772;42.700;23.304;2022-07-23T05:33:04;17.70;;;11.53;;
5499;SDS011;2772;42.700;23.304;2022-07-23T05:35:32;14.27;;;11.20;;
5499;SDS011;2772;42.700;23.304;2022-07-23T05:37:59;16.73;;;11.57;;
5499;SDS011;2772;42.700;23.304;2022-07-23T05:40:27;14.47;;;11.10;;
5499;SDS011;2772;42.700;23.304;2022-07-23T05:42:54;20.73;;;12.10;;
5499;SDS011;2772;42.700;23.304;2022-07-23T05:45:21;19.80;;;12.10;;
5499;SDS011;2772;42.700;23.304;2022-07-23T05:47:48;17.40;;;11.90;;
5499;SDS011;2772;42.700;23.304;2022-07-23T05:50:16;19.73;;;12.10;;
5499;SDS011;2772;42.700;23.304;2022-07-23T05:52:42;22.47;;;11.90;;
5499;SDS011;2772;42.700;23.304;2022-07-23T05:55:10;19.83;;;12.10;;
5499;SDS011;2772;42.700;23.304;2022-07-23T05:57:40;20.30;;;11.60;;
5499;SDS011;2772;42.700;23.304;2022-07-23T06:00:07;13.40;;;11.40;;
5499;SDS011;2772;42.700;23.304;2022-07-23T06:02:35;20.10;;;11.13;;
5499;SDS011;2772;42.700;23.304;2022-07-23T06:05:04;15.33;;;11.00;;
5499;SDS011;2772;42.700;23.304;2022-07-23T06:07:32;15.60;;;11.70;;
5499;SDS011;2772;42.700;23.304;2022-07-23T06:09:59;16.53;;;11.23;;
5499;SDS011;2772;42.700;23.304;2022-07-23T06:12:26;22.43;;;11.70;;
5499;SDS011;2772;42.700;23.304;2022-07-23T06:14:54;21.83;;;13.07;;
5499;SDS011;2772;42.700;23.304;2022-07-23T06:17:21;18.87;;;11.10;;
5499;SDS011;2772;42.700;23.304;2022-07-23T06:19:48;17.23;;;12.43;;
5499;SDS011;2772;42.700;23.304;2022-07-23T06:22:15;15.60;;;12.03;;
5499;SDS011;2772;42.700;23.304;2022-07-23T06:24:42;16.70;;;13.20;;
5499;SDS011;2772;42.700;23.304;2022-07-23T06:27:09;19.40;;;13.13;;
5499;SDS011;2772;42.700;23.304;2022-07-23T06:29:36;18.00;;;13.90;;
5499;SDS011;2772;42.700;23.304;2022-07-23T06:32:04;20.83;;;12.70;;
5499;SDS011;2772;42.700;23.304;2022-07-23T06:34:31;17.50;;;12.60;;
5499;SDS011;2772;42.700;23.304;2022-07-23T06:36:59;17.97;;;14.20;;
5499;SDS011;2772;42.700;23.304;2022-07-23T06:39:26;20.87;;;13.60;;
5499;SDS011;2772;42.700;23.304;2022-07-23T06:41:53;20.83;;;13.93;;
5499;SDS011;2772;42.700;23.304;2022-07-23T06:44:20;20.97;;;13.83;;
5499;SDS011;2772;42.700;23.304;2022-07-23T06:46:47;18.70;;;13.30;;
5499;SDS011;2772;42.700;23.304;2022-07-23T06:49:16;24.00;;;12.13;;
5499;SDS011;2772;42.700;23.304;2022-07-23T06:51:44;21.97;;;13.30;;
5499;SDS011;2772;42.700;23.304;2022-07-23T06:54:11;20.20;;;13.63;;
5499;SDS011;2772;42.700;23.304;2022-07-23T06:56:38;27.53;;;13.33;;
5499;SDS011;2772;42.700;23.304;2022-07-23T06:59:05;19.83;;;12.87;;
5499;SDS011;2772;42.700;23.304;2022-07-23T07:01:32;17.63;;;12.50;;
5499;SDS011;2772;42.700;23.304;2022-07-23T07:03:59;21.03;;;12.53;;
5499;SDS011;2772;42.700;23.304;2022-07-23T07:06:27;30.80;;;13.77;;
5499;SDS011;2772;42.700;23.304;2022-07-23T07:08:54;17.27;;;11.17;;
5499;SDS011;2772;42.700;23.304;2022-07-23T07:11:23;15.60;;;10.70;;
5499;SDS011;2772;42.700;23.304;2022-07-23T07:13:50;19.37;;;11.87;;
5499;SDS011;2772;42.700;23.304;2022-07-23T07:16:17;20.20;;;13.13;;
5499;SDS011;2772;42.700;23.304;2022-07-23T07:18:44;19.13;;;11.60;;
5499;SDS011;2772;42.700;23.304;2022-07-23T07:21:11;14.23;;;11.00;;
5499;SDS011;2772;42.700;23.304;2022-07-23T07:23:40;24.97;;;11.00;;
5499;SDS011;2772;42.700;23.304;2022-07-23T07:26:07;18.90;;;11.40;;
5499;SDS011;2772;42.700;23.304;2022-07-23T07:28:33;14.77;;;10.83;;
5499;SDS011;2772;42.700;23.304;2022-07-23T07:31:01;18.77;;;10.83;;
5499;SDS011;2772;42.700;23.304;2022-07-23T07:33:27;17.40;;;10.60;;
5499;SDS011;2772;42.700;23.304;2022-07-23T07:35:54;20.50;;;11.80;;
5499;SDS011;2772;42.700;23.304;2022-07-23T07:38:21;18.17;;;10.33;;
5499;SDS011;2772;42.700;23.304;2022-07-23T07:40:50;14.00;;;10.20;;
5499;SDS011;2772;42.700;23.304;2022-07-23T07:43:17;13.40;;;10.10;;
5499;SDS011;2772;42.700;23.304;2022-07-23T07:45:44;14.10;;;9.50;;
5499;SDS011;2772;42.700;23.304;2022-07-23T07:48:11;12.80;;;9.70;;
5499;SDS011;2772;42.700;23.304;2022-07-23T07:50:38;17.47;;;11.00;;
5499;SDS011;2772;42.700;23.304;2022-07-23T07:53:05;16.03;;;10.10;;
5499;SDS011;2772;42.700;23.304;2022-07-23T07:55:32;17.63;;;10.10;;
5499;SDS011;2772;42.700;23.304;2022-07-23T07:58:00;13.90;;;9.63;;
5499;SDS011;2772;42.700;23.304;2022-07-23T08:00:27;13.53;;;10.50;;
5499;SDS011;2772;42.700;23.304;2022-07-23T08:02:54;20.07;;;11.00;;
5499;SDS011;2772;42.700;23.304;2022-07-23T08:05:22;15.20;;;10.47;;
5499;SDS011;2772;42.700;23.304;2022-07-23T08:07:50;12.80;;;10.50;;
5499;SDS011;2772;42.700;23.304;2022-07-23T08:10:17;15.90;;;11.30;;
5499;SDS011;2772;42.700;23.304;2022-07-23T08:12:45;16.23;;;12.00;;
5499;SDS011;2772;42.700;23.304;2022-07-23T08:15:17;14.10;;;10.80;;
5499;SDS011;2772;42.700;23.304;2022-07-23T08:17:46;15.03;;;9.63;;
5499;SDS011;2772;42.700;23.304;2022-07-23T08:20:14;12.27;;;9.87;;
5499;SDS011;2772;42.700;23.304;2022-07-23T08:22:43;17.60;;;10.33;;
5499;SDS011;2772;42.700;23.304;2022-07-23T08:25:12;15.00;;;9.53;;
5499;SDS011;2772;42.700;23.304;2022-07-23T08:27:39;19.53;;;10.83;;
5499;SDS011;2772;42.700;23.304;2022-07-23T08:30:06;13.60;;;10.77;;
5499;SDS011;2772;42.700;23.304;2022-07-23T08:32:48;14.07;;;9.50;;
5499;SDS011;2772;42.700;23.304;2022-07-23T08:35:17;15.43;;;10.50;;
5499;SDS011;2772;42.700;23.304;2022-07-23T08:37:44;17.33;;;11.27;;
5499;SDS011;2772;42.700;23.304;2022-07-23T08:40:11;24.67;;;11.53;;
5499;SDS011;2772;42.700;23.304;2022-07-23T08:42:38;12.00;;;9.67;;
5499;SDS011;2772;42.700;23.304;2022-07-23T08:45:06;14.03;;;10.20;;
5499;SDS011;2772;42.700;23.304;2022-07-23T08:47:35;15.27;;;10.93;;
5499;SDS011;2772;42.700;23.304;2022-07-23T08:50:05;20.87;;;10.70;;
5499;SDS011;2772;42.700;23.304;2022-07-23T08:52:33;13.57;;;10.50;;
5499;SDS011;2772;42.700;23.304;2022-07-23T08:55:02;15.90;;;10.40;;
5499;SDS011;2772;42.700;23.304;2022-07-23T08:57:29;16.67;;;10.77;;
5499;SDS011;2772;42.700;23.304;2022-07-23T08:59:56;16.43;;;10.17;;
5499;SDS011;2772;42.700;23.304;2022-07-23T09:02:23;16.30;;;11.20;;
5499;SDS011;2772;42.700;23.304;2022-07-23T09:04:50;26.60;;;12.07;;
5499;SDS011;2772;42.700;23.304;2022-07-23T09:07:18;17.20;;;10.93;;
5499;SDS011;2772;42.700;23.304;2022-07-23T09:09:45;20.03;;;12.10;;
5499;SDS011;2772;42.700;23.304;2022-07-23T09:12:12;18.70;;;10.70;;
5499;SDS011;2772;42.700;23.304;2022-07-23T09:14:40;19.67;;;9.70;;
5499;SDS011;2772;42.700;23.304;2022-07-23T09:17:08;22.30;;;10.93;;
5499;SDS011;2772;42.700;23.304;2022-07-23T09:19:36;13.83;;;9.73;;
5499;SDS011;2772;42.700;23.304;2022-07-23T09:22:16;15.43;;;10.00;;
5499;SDS011;2772;42.700;23.304;2022-07-23T09:25:05;20.17;;;10.57;;
5499;SDS011;2772;42.700;23.304;2022-07-23T09:27:46;13.40;;;10.50;;
5499;SDS011;2772;42.700;23.304;2022-07-23T09:30:15;11.90;;;10.63;;
5499;SDS011;2772;42.700;23.304;2022-07-23T09:32:42;14.40;;;9.23;;
5499;SDS011;2772;42.700;23.304;2022-07-23T09:35:09;17.30;;;10.60;;
5499;SDS011;2772;42.700;23.304;2022-07-23T09:37:38;21.40;;;9.90;;
5499;SDS011;2772;42.700;23.304;2022-07-23T09:40:05;14.03;;;9.53;;
5499;SDS011;2772;42.700;23.304;2022-07-23T09:42:35;14.13;;;8.93;;
5499;SDS011;2772;42.700;23.304;2022-07-23T09:45:02;10.43;;;9.27;;
5499;SDS011;2772;42.700;23.304;2022-07-23T09:47:30;19.60;;;9.27;;
5499;SDS011;2772;42.700;23.304;2022-07-23T09:49:58;16.57;;;8.63;;
5499;SDS011;2772;42.700;23.304;2022-07-23T09:52:29;15.47;;;9.57;;
5499;SDS011;2772;42.700;23.304;2022-07-23T09:55:01;12.87;;;9.20;;
5499;SDS011;2772;42.700;23.304;2022-07-23T09:57:30;15.10;;;9.30;;
5499;SDS011;2772;42.700;23.304;2022-07-23T10:00:00;15.57;;;9.67;;
5499;SDS011;2772;42.700;23.304;2022-07-23T10:02:29;12.80;;;9.10;;
5499;SDS011;2772;42.700;23.304;2022-07-23T10:04:58;15.63;;;8.00;;
5499;SDS011;2772;42.700;23.304;2022-07-23T10:07:27;12.97;;;7.83;;
5499;SDS011;2772;42.700;23.304;2022-07-23T10:09:58;12.30;;;7.30;;
5499;SDS011;2772;42.700;23.304;2022-07-23T10:12:28;13.50;;;7.70;;
5499;SDS011;2772;42.700;23.304;2022-07-23T10:15:18;12.10;;;7.80;;
5499;SDS011;2772;42.700;23.304;2022-07-23T10:17:45;9.43;;;7.80;;
5499;SDS011;2772;42.700;23.304;2022-07-23T10:20:12;23.33;;;8.50;;
5499;SDS011;2772;42.700;23.304;2022-07-23T10:22:40;18.03;;;7.77;;
5499;SDS011;2772;42.700;23.304;2022-07-23T10:25:18;10.73;;;7.37;;
5499;SDS011;2772;42.700;23.304;2022-07-23T10:27:59;15.20;;;8.40;;
5499;SDS011;2772;42.700;23.304;2022-07-23T10:30:35;10.10;;;7.57;;
5499;SDS011;2772;42.700;23.304;2022-07-23T10:33:19;10.07;;;7.37;;
5499;SDS011;2772;42.700;23.304;2022-07-23T10:35:57;17.97;;;7.77;;
5499;SDS011;2772;42.700;23.304;2022-07-23T10:38:34;12.60;;;7.50;;
5499;SDS011;2772;42.700;23.304;2022-07-23T10:41:10;11.00;;;7.10;;
5499;SDS011;2772;42.700;23.304;2022-07-23T10:43:37;13.93;;;7.93;;
5499;SDS011;2772;42.700;23.304;2022-07-23T10:46:23;12.40;;;8.00;;
5499;SDS011;2772;42.700;23.304;2022-07-23T10:54:44;11.87;;;6.90;;
5499;SDS011;2772;42.700;23.304;2022-07-23T10:57:16;12.63;;;7.90;;
5499;SDS011;2772;42.700;23.304;2022-07-23T11:02:51;13.87;;;6.40;;
5499;SDS011;2772;42.700;23.304;2022-07-23T11:05:19;13.27;;;6.33;;
5499;SDS011;2772;42.700;23.304;2022-07-23T11:10:46;17.97;;;5.83;;
5499;SDS011;2772;42.700;23.304;2022-07-23T11:13:35;14.10;;;5.93;;
5499;SDS011;2772;42.700;23.304;2022-07-23T11:16:12;12.13;;;5.90;;
5499;SDS011;2772;42.700;23.304;2022-07-23T11:19:02;14.23;;;6.50;;
5499;SDS011;2772;42.700;23.304;2022-07-23T11:21:41;21.00;;;7.20;;
5499;SDS011;2772;42.700;23.304;2022-07-23T11:24:22;13.73;;;6.60;;
5499;SDS011;2772;42.700;23.304;2022-07-23T11:26:54;13.83;;;6.80;;
5499;SDS011;2772;42.700;23.304;2022-07-23T11:29:42;22.03;;;9.87;;
5499;SDS011;2772;42.700;23.304;2022-07-23T11:32:30;15.73;;;6.60;;
5499;SDS011;2772;42.700;23.304;2022-07-23T11:35:00;11.00;;;6.50;;
5499;SDS011;2772;42.700;23.304;2022-07-23T11:37:35;15.10;;;6.07;;
5499;SDS011;2772;42.700;23.304;2022-07-23T11:40:05;16.80;;;5.80;;
5499;SDS011;2772;42.700;23.304;2022-07-23T11:42:35;13.10;;;6.07;;
5499;SDS011;2772;42.700;23.304;2022-07-23T11:45:06;16.00;;;6.63;;
5499;SDS011;2772;42.700;23.304;2022-07-23T11:47:34;9.50;;;5.97;;
5499;SDS011;2772;42.700;23.304;2022-07-23T11:50:03;20.03;;;6.43;;
5499;SDS011;2772;42.700;23.304;2022-07-23T11:52:32;19.00;;;7.00;;
5499;SDS011;2772;42.700;23.304;2022-07-23T11:54:59;14.23;;;8.40;;
5499;SDS011;2772;42.700;23.304;2022-07-23T11:57:29;16.53;;;6.37;;
5499;SDS011;2772;42.700;23.304;2022-07-23T11:59:57;23.50;;;8.60;;
5499;SDS011;2772;42.700;23.304;2022-07-23T12:02:30;11.63;;;5.43;;
5499;SDS011;2772;42.700;23.304;2022-07-23T12:04:57;15.10;;;6.27;;
5499;SDS011;2772;42.700;23.304;2022-07-23T12:07:27;11.80;;;6.27;;
5499;SDS011;2772;42.700;23.304;2022-07-23T12:09:57;10.77;;;6.33;;
5499;SDS011;2772;42.700;23.304;2022-07-23T12:12:26;19.10;;;6.43;;
5499;SDS011;2772;42.700;23.304;2022-07-23T12:14:54;15.40;;;5.90;;
5499;SDS011;2772;42.700;23.304;2022-07-23T12:17:27;9.63;;;5.70;;
5499;SDS011;2772;42.700;23.304;2022-07-23T12:19:58;13.40;;;6.90;;
5499;SDS011;2772;42.700;23.304;2022-07-23T12:22:26;11.47;;;6.63;;
5499;SDS011;2772;42.700;23.304;2022-07-23T12:25:02;21.70;;;7.80;;
5499;SDS011;2772;42.700;23.304;2022-07-23T12:27:32;15.00;;;6.77;;
5499;SDS011;2772;42.700;23.304;2022-07-23T12:29:59;24.70;;;6.37;;
5499;SDS011;2772;42.700;23.304;2022-07-23T12:32:44;18.77;;;6.50;;
5499;SDS011;2772;42.700;23.304;2022-07-23T12:35:12;20.23;;;6.90;;
5499;SDS011;2772;42.700;23.304;2022-07-23T12:37:49;14.90;;;5.80;;
5499;SDS011;2772;42.700;23.304;2022-07-23T12:40:24;13.13;;;6.47;;
5499;SDS011;2772;42.700;23.304;2022-07-23T12:42:53;21.33;;;6.50;;
5499;SDS011;2772;42.700;23.304;2022-07-23T12:45:21;12.97;;;5.90;;
5499;SDS011;2772;42.700;23.304;2022-07-23T12:47:54;13.23;;;6.00;;
5499;SDS011;2772;42.700;23.304;2022-07-23T12:50:34;12.43;;;5.90;;
5499;SDS011;2772;42.700;23.304;2022-07-23T12:53:16;15.80;;;7.10;;
5499;SDS011;2772;42.700;23.304;2022-07-23T12:55:44;14.57;;;5.77;;
5499;SDS011;2772;42.700;23.304;2022-07-23T12:58:13;15.27;;;6.17;;
5499;SDS011;2772;42.700;23.304;2022-07-23T13:00:52;18.87;;;6.17;;
5499;SDS011;2772;42.700;23.304;2022-07-23T13:03:23;13.80;;;6.30;;
5499;SDS011;2772;42.700;23.304;2022-07-23T13:05:58;16.43;;;5.90;;
5499;SDS011;2772;42.700;23.304;2022-07-23T13:08:28;12.73;;;6.30;;
5499;SDS011;2772;42.700;23.304;2022-07-23T13:10:56;9.50;;;5.90;;
5499;SDS011;2772;42.700;23.304;2022-07-23T13:13:24;20.50;;;6.80;;
5499;SDS011;2772;42.700;23.304;2022-07-23T13:15:53;10.23;;;5.80;;
5499;SDS011;2772;42.700;23.304;2022-07-23T13:18:20;17.03;;;6.87;;
5499;SDS011;2772;42.700;23.304;2022-07-23T13:20:49;18.10;;;6.80;;
5499;SDS011;2772;42.700;23.304;2022-07-23T13:23:16;12.90;;;6.27;;
5499;SDS011;2772;42.700;23.304;2022-07-23T13:25:44;18.00;;;5.53;;
5499;SDS011;2772;42.700;23.304;2022-07-23T13:28:11;15.73;;;6.33;;
5499;SDS011;2772;42.700;23.304;2022-07-23T13:30:39;13.80;;;6.20;;
5499;SDS011;2772;42.700;23.304;2022-07-23T13:33:06;18.97;;;5.30;;
5499;SDS011;2772;42.700;23.304;2022-07-23T13:35:33;11.60;;;5.63;;
5499;SDS011;2772;42.700;23.304;2022-07-23T13:38:03;14.20;;;5.67;;
5499;SDS011;2772;42.700;23.304;2022-07-23T13:40:32;15.77;;;5.40;;
5499;SDS011;2772;42.700;23.304;2022-07-23T13:42:59;13.10;;;5.50;;
5499;SDS011;2772;42.700;23.304;2022-07-23T13:45:26;10.83;;;5.33;;
5499;SDS011;2772;42.700;23.304;2022-07-23T13:47:53;11.60;;;5.63;;
5499;SDS011;2772;42.700;23.304;2022-07-23T13:50:20;10.40;;;5.20;;
5499;SDS011;2772;42.700;23.304;2022-07-23T13:52:47;16.33;;;5.67;;
5499;SDS011;2772;42.700;23.304;2022-07-23T13:55:15;13.97;;;6.40;;
5499;SDS011;2772;42.700;23.304;2022-07-23T13:57:42;14.43;;;6.87;;
5499;SDS011;2772;42.700;23.304;2022-07-23T14:00:10;10.73;;;5.50;;
5499;SDS011;2772;42.700;23.304;2022-07-23T14:02:38;10.37;;;5.37;;
5499;SDS011;2772;42.700;23.304;2022-07-23T14:05:06;13.20;;;5.80;;
5499;SDS011;2772;42.700;23.304;2022-07-23T14:07:36;17.67;;;5.60;;
5499;SDS011;2772;42.700;23.304;2022-07-23T14:10:04;20.90;;;5.63;;
5499;SDS011;2772;42.700;23.304;2022-07-23T14:12:33;12.83;;;6.20;;
5499;SDS011;2772;42.700;23.304;2022-07-23T14:15:01;12.63;;;5.73;;
5499;SDS011;2772;42.700;23.304;2022-07-23T14:17:28;15.73;;;5.97;;
5499;SDS011;2772;42.700;23.304;2022-07-23T14:19:55;13.93;;;6.03;;
5499;SDS011;2772;42.700;23.304;2022-07-23T14:22:22;10.70;;;5.60;;
5499;SDS011;2772;42.700;23.304;2022-07-23T14:24:49;11.90;;;5.73;;
5499;SDS011;2772;42.700;23.304;2022-07-23T14:27:15;10.10;;;5.57;;
5499;SDS011;2772;42.700;23.304;2022-07-23T14:29:44;12.00;;;5.37;;
5499;SDS011;2772;42.700;23.304;2022-07-23T14:32:11;11.50;;;5.57;;
5499;SDS011;2772;42.700;23.304;2022-07-23T14:34:37;14.07;;;5.90;;
5499;SDS011;2772;42.700;23.304;2022-07-23T14:37:04;8.57;;;5.63;;
5499;SDS011;2772;42.700;23.304;2022-07-23T14:39:31;15.03;;;5.70;;
5499;SDS011;2772;42.700;23.304;2022-07-23T14:41:58;14.93;;;5.90;;
5499;SDS011;2772;42.700;23.304;2022-07-23T14:44:25;7.00;;;5.43;;
5499;SDS011;2772;42.700;23.304;2022-07-23T14:46:54;11.70;;;6.17;;
5499;SDS011;2772;42.700;23.304;2022-07-23T14:49:20;9.93;;;5.87;;
5499;SDS011;2772;42.700;23.304;2022-07-23T14:51:47;22.43;;;6.20;;
5499;SDS011;2772;42.700;23.304;2022-07-23T14:54:14;12.53;;;5.90;;
5499;SDS011;2772;42.700;23.304;2022-07-23T14:56:41;15.50;;;5.43;;
5499;SDS011;2772;42.700;23.304;2022-07-23T14:59:09;8.50;;;5.50;;
5499;SDS011;2772;42.700;23.304;2022-07-23T15:01:36;10.70;;;5.73;;